sensor_id;sensor_type;location;lat;lon;timestamp;P1;durP1;ratioP1;P2;durP2;ratioP2
29570;SDS011;16814;52.118;11.436;2024-01-11T00:01:35;80.55;;;35.47;;
29570;SDS011;16814;52.118;11.436;2024-01-11T00:04:02;83.80;;;34.77;;
29570;SDS011;16814;52.118;11.436;2024-01-11T00:06:28;79.25;;;35.15;;
29570;SDS011;16814;52.118;11.436;2024-01-11T00:08:54;82.30;;;34.30;;
29570;SDS011;16814;52.118;11.436;2024-01-11T00:11:21;84.83;;;34.97;;
29570;SDS011;16814;52.118;11.436;2024-01-11T00:13:49;78.35;;;35.05;;
29570;SDS011;16814;52.118;11.436;2024-01-11T00:16:16;83.22;;;35.08;;
29570;SDS011;16814;52.118;11.436;2024-01-11T00:18:42;84.28;;;34.90;;
29570;SDS011;16814;52.118;11.436;2024-01-11T00:21:10;84.45;;;34.90;;
29570;SDS011;16814;52.118;11.436;2024-01-11T00:23:36;78.00;;;34.03;;
29570;SDS011;16814;52.118;11.436;2024-01-11T00:26:01;79.30;;;34.17;;
29570;SDS011;16814;52.118;11.436;2024-01-11T00:28:29;72.38;;;33.05;;
29570;SDS011;16814;52.118;11.436;2024-01-11T00:30:57;70.80;;;31.27;;
29570;SDS011;16814;52.118;11.436;2024-01-11T00:33:24;77.40;;;33.22;;
29570;SDS011;16814;52.118;11.436;2024-01-11T00:35:51;75.03;;;32.53;;
29570;SDS011;16814;52.118;11.436;2024-01-11T00:38:18;70.88;;;31.05;;
29570;SDS011;16814;52.118;11.436;2024-01-11T00:40:46;74.33;;;32.17;;
29570;SDS011;16814;52.118;11.436;2024-01-11T00:43:15;79.95;;;33.00;;
29570;SDS011;16814;52.118;11.436;2024-01-11T00:45:43;79.57;;;33.72;;
29570;SDS011;16814;52.118;11.436;2024-01-11T00:48:10;83.75;;;33.42;;
29570;SDS011;16814;52.118;11.436;2024-01-11T00:50:38;76.25;;;33.97;;
29570;SDS011;16814;52.118;11.436;2024-01-11T00:53:07;70.03;;;31.50;;
29570;SDS011;16814;52.118;11.436;2024-01-11T00:55:34;80.10;;;34.20;;
29570;SDS011;16814;52.118;11.436;2024-01-11T00:57:59;74.53;;;32.57;;
29570;SDS011;16814;52.118;11.436;2024-01-11T01:00:33;76.50;;;33.50;;
29570;SDS011;16814;52.118;11.436;2024-01-11T01:02:59;78.10;;;33.88;;
29570;SDS011;16814;52.118;11.436;2024-01-11T01:05:26;74.05;;;32.30;;
29570;SDS011;16814;52.118;11.436;2024-01-11T01:07:53;78.93;;;32.10;;
29570;SDS011;16814;52.118;11.436;2024-01-11T01:10:19;75.43;;;32.75;;
29570;SDS011;16814;52.118;11.436;2024-01-11T01:12:47;71.53;;;31.25;;
29570;SDS011;16814;52.118;11.436;2024-01-11T01:15:13;73.18;;;30.85;;
29570;SDS011;16814;52.118;11.436;2024-01-11T01:17:39;71.25;;;31.38;;
29570;SDS011;16814;52.118;11.436;2024-01-11T01:20:06;72.78;;;31.77;;
29570;SDS011;16814;52.118;11.436;2024-01-11T01:22:34;70.60;;;32.03;;
29570;SDS011;16814;52.118;11.436;2024-01-11T01:25:02;70.85;;;30.58;;
29570;SDS011;16814;52.118;11.436;2024-01-11T01:27:29;65.03;;;27.58;;
29570;SDS011;16814;52.118;11.436;2024-01-11T01:29:56;58.45;;;27.30;;
29570;SDS011;16814;52.118;11.436;2024-01-11T01:32:23;65.90;;;29.02;;
29570;SDS011;16814;52.118;11.436;2024-01-11T01:34:50;65.22;;;28.92;;
29570;SDS011;16814;52.118;11.436;2024-01-11T01:37:16;65.53;;;28.75;;
29570;SDS011;16814;52.118;11.436;2024-01-11T01:39:41;66.00;;;28.70;;
29570;SDS011;16814;52.118;11.436;2024-01-11T01:42:09;67.43;;;29.92;;
29570;SDS011;16814;52.118;11.436;2024-01-11T01:44:37;70.35;;;30.25;;
29570;SDS011;16814;52.118;11.436;2024-01-11T01:47:07;64.90;;;28.35;;
29570;SDS011;16814;52.118;11.436;2024-01-11T01:49:38;63.30;;;30.27;;
29570;SDS011;16814;52.118;11.436;2024-01-11T01:52:05;68.00;;;30.85;;
29570;SDS011;16814;52.118;11.436;2024-01-11T01:54:36;62.80;;;28.17;;
29570;SDS011;16814;52.118;11.436;2024-01-11T01:57:03;68.18;;;31.13;;
29570;SDS011;16814;52.118;11.436;2024-01-11T01:59:30;67.95;;;29.70;;
29570;SDS011;16814;52.118;11.436;2024-01-11T02:01:56;66.95;;;28.90;;
29570;SDS011;16814;52.118;11.436;2024-01-11T02:04:24;61.67;;;28.88;;
29570;SDS011;16814;52.118;11.436;2024-01-11T02:06:53;65.53;;;28.60;;
29570;SDS011;16814;52.118;11.436;2024-01-11T02:09:22;62.80;;;28.88;;
29570;SDS011;16814;52.118;11.436;2024-01-11T02:11:48;62.77;;;28.10;;
29570;SDS011;16814;52.118;11.436;2024-01-11T02:14:22;55.00;;;25.60;;
29570;SDS011;16814;52.118;11.436;2024-01-11T02:16:50;56.63;;;24.90;;
29570;SDS011;16814;52.118;11.436;2024-01-11T02:19:18;58.65;;;26.80;;
29570;SDS011;16814;52.118;11.436;2024-01-11T02:21:46;58.35;;;26.70;;
29570;SDS011;16814;52.118;11.436;2024-01-11T02:24:15;56.93;;;26.63;;
29570;SDS011;16814;52.118;11.436;2024-01-11T02:27:01;58.67;;;26.17;;
29570;SDS011;16814;52.118;11.436;2024-01-11T02:29:30;56.85;;;24.77;;
29570;SDS011;16814;52.118;11.436;2024-01-11T02:31:58;56.80;;;24.77;;
29570;SDS011;16814;52.118;11.436;2024-01-11T02:34:28;50.63;;;24.03;;
29570;SDS011;16814;52.118;11.436;2024-01-11T02:36:55;56.63;;;25.00;;
29570;SDS011;16814;52.118;11.436;2024-01-11T02:39:24;55.45;;;24.90;;
29570;SDS011;16814;52.118;11.436;2024-01-11T02:41:52;57.28;;;25.40;;
29570;SDS011;16814;52.118;11.436;2024-01-11T02:44:19;56.80;;;24.73;;
29570;SDS011;16814;52.118;11.436;2024-01-11T02:46:45;57.53;;;26.00;;
29570;SDS011;16814;52.118;11.436;2024-01-11T02:49:13;60.60;;;26.35;;
29570;SDS011;16814;52.118;11.436;2024-01-11T02:51:40;54.05;;;24.85;;
29570;SDS011;16814;52.118;11.436;2024-01-11T02:54:09;59.22;;;25.55;;
29570;SDS011;16814;52.118;11.436;2024-01-11T02:56:35;57.38;;;25.25;;
29570;SDS011;16814;52.118;11.436;2024-01-11T02:59:03;58.58;;;25.42;;
29570;SDS011;16814;52.118;11.436;2024-01-11T03:01:29;58.55;;;26.10;;
29570;SDS011;16814;52.118;11.436;2024-01-11T03:03:56;54.28;;;24.50;;
29570;SDS011;16814;52.118;11.436;2024-01-11T03:06:23;52.50;;;25.15;;
29570;SDS011;16814;52.118;11.436;2024-01-11T03:08:51;52.42;;;24.38;;
29570;SDS011;16814;52.118;11.436;2024-01-11T03:11:17;57.10;;;25.10;;
29570;SDS011;16814;52.118;11.436;2024-01-11T03:13:42;56.13;;;25.87;;
29570;SDS011;16814;52.118;11.436;2024-01-11T03:16:11;55.63;;;25.55;;
29570;SDS011;16814;52.118;11.436;2024-01-11T03:18:37;63.92;;;27.75;;
29570;SDS011;16814;52.118;11.436;2024-01-11T03:21:03;60.45;;;26.83;;
29570;SDS011;16814;52.118;11.436;2024-01-11T03:23:30;60.75;;;27.08;;
29570;SDS011;16814;52.118;11.436;2024-01-11T03:25:57;65.95;;;29.75;;
29570;SDS011;16814;52.118;11.436;2024-01-11T03:28:23;60.97;;;28.75;;
29570;SDS011;16814;52.118;11.436;2024-01-11T03:30:51;61.93;;;28.27;;
29570;SDS011;16814;52.118;11.436;2024-01-11T03:33:17;62.22;;;27.83;;
29570;SDS011;16814;52.118;11.436;2024-01-11T03:35:42;67.78;;;28.40;;
29570;SDS011;16814;52.118;11.436;2024-01-11T03:38:11;69.28;;;30.40;;
29570;SDS011;16814;52.118;11.436;2024-01-11T03:40:39;59.20;;;27.48;;
29570;SDS011;16814;52.118;11.436;2024-01-11T03:43:05;62.00;;;28.13;;
29570;SDS011;16814;52.118;11.436;2024-01-11T03:45:32;65.25;;;29.33;;
29570;SDS011;16814;52.118;11.436;2024-01-11T03:47:59;64.37;;;29.03;;
29570;SDS011;16814;52.118;11.436;2024-01-11T03:50:26;64.40;;;28.60;;
29570;SDS011;16814;52.118;11.436;2024-01-11T03:52:53;64.07;;;27.80;;
29570;SDS011;16814;52.118;11.436;2024-01-11T03:55:19;60.83;;;28.38;;
29570;SDS011;16814;52.118;11.436;2024-01-11T03:57:46;67.13;;;29.58;;
29570;SDS011;16814;52.118;11.436;2024-01-11T04:00:13;65.40;;;29.02;;
29570;SDS011;16814;52.118;11.436;2024-01-11T04:02:39;67.60;;;29.83;;
29570;SDS011;16814;52.118;11.436;2024-01-11T04:05:06;71.43;;;31.13;;
29570;SDS011;16814;52.118;11.436;2024-01-11T04:07:32;61.28;;;28.50;;
29570;SDS011;16814;52.118;11.436;2024-01-11T04:10:00;63.22;;;28.92;;
29570;SDS011;16814;52.118;11.436;2024-01-11T04:12:26;60.97;;;27.40;;
29570;SDS011;16814;52.118;11.436;2024-01-11T04:14:53;63.90;;;28.60;;
29570;SDS011;16814;52.118;11.436;2024-01-11T04:17:18;63.72;;;28.20;;
29570;SDS011;16814;52.118;11.436;2024-01-11T04:19:46;63.33;;;28.23;;
29570;SDS011;16814;52.118;11.436;2024-01-11T04:22:13;67.90;;;29.52;;
29570;SDS011;16814;52.118;11.436;2024-01-11T04:24:41;62.45;;;29.17;;
29570;SDS011;16814;52.118;11.436;2024-01-11T04:27:09;60.55;;;27.27;;
29570;SDS011;16814;52.118;11.436;2024-01-11T04:29:36;59.40;;;27.55;;
29570;SDS011;16814;52.118;11.436;2024-01-11T04:32:04;65.78;;;30.23;;
29570;SDS011;16814;52.118;11.436;2024-01-11T04:34:33;62.03;;;26.42;;
29570;SDS011;16814;52.118;11.436;2024-01-11T04:36:58;64.88;;;28.63;;
29570;SDS011;16814;52.118;11.436;2024-01-11T04:39:25;69.40;;;30.65;;
29570;SDS011;16814;52.118;11.436;2024-01-11T04:41:52;64.70;;;29.92;;
29570;SDS011;16814;52.118;11.436;2024-01-11T04:44:20;64.90;;;29.45;;
29570;SDS011;16814;52.118;11.436;2024-01-11T04:46:46;71.13;;;31.30;;
29570;SDS011;16814;52.118;11.436;2024-01-11T04:49:13;72.10;;;29.98;;
29570;SDS011;16814;52.118;11.436;2024-01-11T04:51:40;63.58;;;29.45;;
29570;SDS011;16814;52.118;11.436;2024-01-11T04:54:08;67.13;;;29.70;;
29570;SDS011;16814;52.118;11.436;2024-01-11T04:56:35;67.73;;;29.90;;
29570;SDS011;16814;52.118;11.436;2024-01-11T04:59:01;64.82;;;28.13;;
29570;SDS011;16814;52.118;11.436;2024-01-11T05:01:28;63.58;;;29.50;;
29570;SDS011;16814;52.118;11.436;2024-01-11T05:03:54;67.57;;;29.85;;
29570;SDS011;16814;52.118;11.436;2024-01-11T05:06:22;61.65;;;27.42;;
29570;SDS011;16814;52.118;11.436;2024-01-11T05:08:51;60.83;;;27.67;;
29570;SDS011;16814;52.118;11.436;2024-01-11T05:11:18;69.90;;;29.65;;
29570;SDS011;16814;52.118;11.436;2024-01-11T05:13:44;67.43;;;28.90;;
29570;SDS011;16814;52.118;11.436;2024-01-11T05:16:26;65.22;;;28.83;;
29570;SDS011;16814;52.118;11.436;2024-01-11T05:18:55;66.20;;;28.73;;
29570;SDS011;16814;52.118;11.436;2024-01-11T05:21:23;67.63;;;30.58;;
29570;SDS011;16814;52.118;11.436;2024-01-11T05:23:52;67.50;;;29.60;;
29570;SDS011;16814;52.118;11.436;2024-01-11T05:26:19;70.82;;;32.30;;
29570;SDS011;16814;52.118;11.436;2024-01-11T05:28:46;66.95;;;30.33;;
29570;SDS011;16814;52.118;11.436;2024-01-11T05:31:14;67.22;;;29.88;;
29570;SDS011;16814;52.118;11.436;2024-01-11T05:33:42;76.20;;;31.17;;
29570;SDS011;16814;52.118;11.436;2024-01-11T05:36:10;71.13;;;30.08;;
29570;SDS011;16814;52.118;11.436;2024-01-11T05:38:37;67.60;;;30.27;;
29570;SDS011;16814;52.118;11.436;2024-01-11T05:41:04;68.10;;;31.63;;
29570;SDS011;16814;52.118;11.436;2024-01-11T05:43:30;67.35;;;30.80;;
29570;SDS011;16814;52.118;11.436;2024-01-11T05:45:57;73.30;;;31.20;;
29570;SDS011;16814;52.118;11.436;2024-01-11T05:48:26;68.05;;;31.42;;
29570;SDS011;16814;52.118;11.436;2024-01-11T05:50:54;70.30;;;31.95;;
29570;SDS011;16814;52.118;11.436;2024-01-11T05:53:20;68.45;;;30.55;;
29570;SDS011;16814;52.118;11.436;2024-01-11T05:55:47;67.68;;;30.80;;
29570;SDS011;16814;52.118;11.436;2024-01-11T05:58:14;71.20;;;31.10;;
29570;SDS011;16814;52.118;11.436;2024-01-11T06:00:44;67.40;;;31.03;;
29570;SDS011;16814;52.118;11.436;2024-01-11T06:03:11;70.38;;;32.03;;
29570;SDS011;16814;52.118;11.436;2024-01-11T06:05:39;75.90;;;33.10;;
29570;SDS011;16814;52.118;11.436;2024-01-11T06:08:07;73.88;;;33.45;;
29570;SDS011;16814;52.118;11.436;2024-01-11T06:10:36;70.32;;;31.40;;
29570;SDS011;16814;52.118;11.436;2024-01-11T06:13:04;70.28;;;31.58;;
29570;SDS011;16814;52.118;11.436;2024-01-11T06:15:32;67.05;;;31.13;;
29570;SDS011;16814;52.118;11.436;2024-01-11T06:17:59;65.13;;;31.10;;
29570;SDS011;16814;52.118;11.436;2024-01-11T06:20:26;67.80;;;31.05;;
29570;SDS011;16814;52.118;11.436;2024-01-11T06:22:52;70.17;;;31.40;;
29570;SDS011;16814;52.118;11.436;2024-01-11T06:25:20;67.00;;;30.85;;
29570;SDS011;16814;52.118;11.436;2024-01-11T06:27:47;70.88;;;32.15;;
29570;SDS011;16814;52.118;11.436;2024-01-11T06:30:15;70.70;;;31.50;;
29570;SDS011;16814;52.118;11.436;2024-01-11T06:32:42;68.65;;;32.17;;
29570;SDS011;16814;52.118;11.436;2024-01-11T06:35:10;66.65;;;32.42;;
29570;SDS011;16814;52.118;11.436;2024-01-11T06:37:37;63.47;;;30.77;;
29570;SDS011;16814;52.118;11.436;2024-01-11T06:40:04;70.93;;;32.83;;
29570;SDS011;16814;52.118;11.436;2024-01-11T06:42:33;69.78;;;32.50;;
29570;SDS011;16814;52.118;11.436;2024-01-11T06:45:00;75.25;;;33.72;;
29570;SDS011;16814;52.118;11.436;2024-01-11T06:47:26;71.65;;;33.60;;
29570;SDS011;16814;52.118;11.436;2024-01-11T06:49:52;76.73;;;34.23;;
29570;SDS011;16814;52.118;11.436;2024-01-11T06:52:19;79.35;;;35.05;;
29570;SDS011;16814;52.118;11.436;2024-01-11T06:54:46;74.53;;;34.37;;
29570;SDS011;16814;52.118;11.436;2024-01-11T06:57:14;75.07;;;34.92;;
29570;SDS011;16814;52.118;11.436;2024-01-11T06:59:40;78.55;;;34.70;;
29570;SDS011;16814;52.118;11.436;2024-01-11T07:02:07;80.85;;;36.45;;
29570;SDS011;16814;52.118;11.436;2024-01-11T07:04:33;82.13;;;36.97;;
29570;SDS011;16814;52.118;11.436;2024-01-11T07:07:01;78.93;;;36.40;;
29570;SDS011;16814;52.118;11.436;2024-01-11T07:09:30;79.40;;;35.78;;
29570;SDS011;16814;52.118;11.436;2024-01-11T07:11:56;75.20;;;36.22;;
29570;SDS011;16814;52.118;11.436;2024-01-11T07:14:22;81.57;;;36.47;;
29570;SDS011;16814;52.118;11.436;2024-01-11T07:16:50;77.32;;;35.67;;
29570;SDS011;16814;52.118;11.436;2024-01-11T07:19:15;96.43;;;43.60;;
29570;SDS011;16814;52.118;11.436;2024-01-11T07:21:42;94.22;;;41.97;;
29570;SDS011;16814;52.118;11.436;2024-01-11T07:24:08;85.90;;;40.77;;
29570;SDS011;16814;52.118;11.436;2024-01-11T07:26:35;89.63;;;39.47;;
29570;SDS011;16814;52.118;11.436;2024-01-11T07:29:01;86.28;;;39.03;;
29570;SDS011;16814;52.118;11.436;2024-01-11T07:31:28;90.33;;;39.50;;
29570;SDS011;16814;52.118;11.436;2024-01-11T07:33:56;83.00;;;37.22;;
29570;SDS011;16814;52.118;11.436;2024-01-11T07:36:23;86.15;;;38.10;;
29570;SDS011;16814;52.118;11.436;2024-01-11T07:38:52;83.45;;;38.15;;
29570;SDS011;16814;52.118;11.436;2024-01-11T07:41:26;79.45;;;35.65;;
29570;SDS011;16814;52.118;11.436;2024-01-11T07:43:52;85.10;;;37.05;;
29570;SDS011;16814;52.118;11.436;2024-01-11T07:46:23;80.60;;;36.57;;
29570;SDS011;16814;52.118;11.436;2024-01-11T07:48:50;75.20;;;34.63;;
29570;SDS011;16814;52.118;11.436;2024-01-11T07:51:17;85.45;;;36.88;;
29570;SDS011;16814;52.118;11.436;2024-01-11T07:53:44;90.43;;;39.10;;
29570;SDS011;16814;52.118;11.436;2024-01-11T07:56:11;87.40;;;38.20;;
29570;SDS011;16814;52.118;11.436;2024-01-11T07:58:40;84.50;;;38.17;;
29570;SDS011;16814;52.118;11.436;2024-01-11T08:01:11;88.57;;;37.42;;
29570;SDS011;16814;52.118;11.436;2024-01-11T08:03:37;90.70;;;41.42;;
29570;SDS011;16814;52.118;11.436;2024-01-11T08:06:08;100.05;;;46.03;;
29570;SDS011;16814;52.118;11.436;2024-01-11T08:08:35;89.80;;;42.28;;
29570;SDS011;16814;52.118;11.436;2024-01-11T08:11:03;104.55;;;48.17;;
29570;SDS011;16814;52.118;11.436;2024-01-11T08:13:31;93.32;;;43.80;;
29570;SDS011;16814;52.118;11.436;2024-01-11T08:16:03;90.03;;;40.00;;
29570;SDS011;16814;52.118;11.436;2024-01-11T08:18:35;81.35;;;36.85;;
29570;SDS011;16814;52.118;11.436;2024-01-11T08:21:03;80.85;;;37.10;;
29570;SDS011;16814;52.118;11.436;2024-01-11T08:23:39;83.65;;;36.70;;
29570;SDS011;16814;52.118;11.436;2024-01-11T08:26:15;87.10;;;37.30;;
29570;SDS011;16814;52.118;11.436;2024-01-11T08:28:43;83.00;;;36.83;;
29570;SDS011;16814;52.118;11.436;2024-01-11T08:31:10;101.40;;;41.97;;
29570;SDS011;16814;52.118;11.436;2024-01-11T08:33:38;147.40;;;60.80;;
29570;SDS011;16814;52.118;11.436;2024-01-11T08:36:06;144.73;;;62.08;;
29570;SDS011;16814;52.118;11.436;2024-01-11T08:38:34;182.30;;;74.18;;
29570;SDS011;16814;52.118;11.436;2024-01-11T08:41:02;212.23;;;84.67;;
29570;SDS011;16814;52.118;11.436;2024-01-11T08:43:28;213.38;;;81.72;;
29570;SDS011;16814;52.118;11.436;2024-01-11T08:45:57;137.73;;;56.03;;
29570;SDS011;16814;52.118;11.436;2024-01-11T08:48:32;121.18;;;52.83;;
29570;SDS011;16814;52.118;11.436;2024-01-11T08:50:59;189.07;;;83.90;;
29570;SDS011;16814;52.118;11.436;2024-01-11T08:53:24;153.85;;;71.03;;
29570;SDS011;16814;52.118;11.436;2024-01-11T08:55:52;119.07;;;52.95;;
29570;SDS011;16814;52.118;11.436;2024-01-11T08:58:19;138.43;;;63.58;;
29570;SDS011;16814;52.118;11.436;2024-01-11T09:00:48;91.88;;;39.67;;
29570;SDS011;16814;52.118;11.436;2024-01-11T09:03:14;80.20;;;35.97;;
29570;SDS011;16814;52.118;11.436;2024-01-11T09:05:42;74.78;;;33.25;;
29570;SDS011;16814;52.118;11.436;2024-01-11T09:08:09;79.78;;;36.70;;
29570;SDS011;16814;52.118;11.436;2024-01-11T09:10:36;75.28;;;34.40;;
29570;SDS011;16814;52.118;11.436;2024-01-11T09:13:03;96.13;;;43.47;;
29570;SDS011;16814;52.118;11.436;2024-01-11T09:15:30;103.27;;;48.23;;
29570;SDS011;16814;52.118;11.436;2024-01-11T09:17:56;101.38;;;47.13;;
29570;SDS011;16814;52.118;11.436;2024-01-11T09:20:24;76.28;;;36.00;;
29570;SDS011;16814;52.118;11.436;2024-01-11T09:22:52;86.90;;;40.97;;
29570;SDS011;16814;52.118;11.436;2024-01-11T09:25:17;80.35;;;35.83;;
29570;SDS011;16814;52.118;11.436;2024-01-11T09:27:45;67.23;;;28.57;;
29570;SDS011;16814;52.118;11.436;2024-01-11T09:30:10;60.53;;;27.73;;
29570;SDS011;16814;52.118;11.436;2024-01-11T09:32:38;60.90;;;27.67;;
29570;SDS011;16814;52.118;11.436;2024-01-11T09:35:06;58.17;;;26.77;;
29570;SDS011;16814;52.118;11.436;2024-01-11T09:37:32;57.72;;;26.10;;
29570;SDS011;16814;52.118;11.436;2024-01-11T09:39:59;57.10;;;25.48;;
29570;SDS011;16814;52.118;11.436;2024-01-11T09:42:29;53.17;;;24.25;;
29570;SDS011;16814;52.118;11.436;2024-01-11T09:44:57;56.90;;;25.52;;
29570;SDS011;16814;52.118;11.436;2024-01-11T09:47:25;54.83;;;24.48;;
29570;SDS011;16814;52.118;11.436;2024-01-11T09:49:53;55.80;;;25.83;;
29570;SDS011;16814;52.118;11.436;2024-01-11T09:52:21;57.35;;;24.63;;
29570;SDS011;16814;52.118;11.436;2024-01-11T09:54:50;49.63;;;23.45;;
29570;SDS011;16814;52.118;11.436;2024-01-11T09:57:20;54.45;;;23.55;;
29570;SDS011;16814;52.118;11.436;2024-01-11T10:00:05;51.95;;;24.13;;
29570;SDS011;16814;52.118;11.436;2024-01-11T10:02:34;52.78;;;24.55;;
29570;SDS011;16814;52.118;11.436;2024-01-11T10:04:59;49.15;;;23.27;;
29570;SDS011;16814;52.118;11.436;2024-01-11T10:07:25;48.50;;;22.92;;
29570;SDS011;16814;52.118;11.436;2024-01-11T10:09:52;47.28;;;22.75;;
29570;SDS011;16814;52.118;11.436;2024-01-11T10:12:18;43.83;;;20.55;;
29570;SDS011;16814;52.118;11.436;2024-01-11T10:14:46;49.80;;;23.10;;
29570;SDS011;16814;52.118;11.436;2024-01-11T10:17:15;51.28;;;22.65;;
29570;SDS011;16814;52.118;11.436;2024-01-11T10:19:41;44.72;;;21.75;;
29570;SDS011;16814;52.118;11.436;2024-01-11T10:22:11;44.80;;;21.05;;
29570;SDS011;16814;52.118;11.436;2024-01-11T10:24:38;46.75;;;21.70;;
29570;SDS011;16814;52.118;11.436;2024-01-11T10:27:04;44.08;;;20.75;;
29570;SDS011;16814;52.118;11.436;2024-01-11T10:29:34;43.78;;;21.27;;
29570;SDS011;16814;52.118;11.436;2024-01-11T10:32:03;43.30;;;20.63;;
29570;SDS011;16814;52.118;11.436;2024-01-11T10:34:29;41.92;;;19.60;;
29570;SDS011;16814;52.118;11.436;2024-01-11T10:36:56;57.30;;;27.50;;
29570;SDS011;16814;52.118;11.436;2024-01-11T10:39:24;45.38;;;22.65;;
29570;SDS011;16814;52.118;11.436;2024-01-11T10:42:13;41.00;;;20.27;;
29570;SDS011;16814;52.118;11.436;2024-01-11T10:44:38;40.92;;;19.45;;
29570;SDS011;16814;52.118;11.436;2024-01-11T10:47:13;37.57;;;18.73;;
29570;SDS011;16814;52.118;11.436;2024-01-11T10:49:41;40.85;;;19.63;;
29570;SDS011;16814;52.118;11.436;2024-01-11T10:52:13;41.08;;;21.10;;
29570;SDS011;16814;52.118;11.436;2024-01-11T10:54:40;61.38;;;29.60;;
29570;SDS011;16814;52.118;11.436;2024-01-11T10:57:10;69.47;;;34.80;;
29570;SDS011;16814;52.118;11.436;2024-01-11T10:59:37;53.70;;;26.83;;
29570;SDS011;16814;52.118;11.436;2024-01-11T11:02:05;54.03;;;26.17;;
29570;SDS011;16814;52.118;11.436;2024-01-11T11:04:38;73.35;;;33.67;;
29570;SDS011;16814;52.118;11.436;2024-01-11T11:07:10;98.05;;;48.05;;
29570;SDS011;16814;52.118;11.436;2024-01-11T11:09:39;86.38;;;41.65;;
29570;SDS011;16814;52.118;11.436;2024-01-11T11:12:08;94.43;;;43.50;;
29570;SDS011;16814;52.118;11.436;2024-01-11T11:14:39;63.97;;;31.23;;
29570;SDS011;16814;52.118;11.436;2024-01-11T11:17:09;53.22;;;24.75;;
29570;SDS011;16814;52.118;11.436;2024-01-11T11:19:36;57.97;;;27.63;;
29570;SDS011;16814;52.118;11.436;2024-01-11T11:22:03;61.45;;;28.60;;
29570;SDS011;16814;52.118;11.436;2024-01-11T11:24:33;54.85;;;27.05;;
29570;SDS011;16814;52.118;11.436;2024-01-11T11:27:01;44.10;;;21.43;;
29570;SDS011;16814;52.118;11.436;2024-01-11T11:29:28;42.37;;;21.37;;
29570;SDS011;16814;52.118;11.436;2024-01-11T11:31:55;54.37;;;25.93;;
29570;SDS011;16814;52.118;11.436;2024-01-11T11:34:41;46.22;;;22.42;;
29570;SDS011;16814;52.118;11.436;2024-01-11T11:37:11;38.40;;;19.27;;
29570;SDS011;16814;52.118;11.436;2024-01-11T11:39:48;37.78;;;18.95;;
29570;SDS011;16814;52.118;11.436;2024-01-11T11:42:15;39.08;;;19.63;;
29570;SDS011;16814;52.118;11.436;2024-01-11T11:44:49;36.97;;;19.25;;
29570;SDS011;16814;52.118;11.436;2024-01-11T11:47:22;38.70;;;20.63;;
29570;SDS011;16814;52.118;11.436;2024-01-11T11:50:07;38.95;;;19.35;;
29570;SDS011;16814;52.118;11.436;2024-01-11T11:52:35;36.00;;;19.45;;
29570;SDS011;16814;52.118;11.436;2024-01-11T11:55:10;39.05;;;19.67;;
29570;SDS011;16814;52.118;11.436;2024-01-11T11:57:39;67.30;;;31.20;;
29570;SDS011;16814;52.118;11.436;2024-01-11T12:00:09;94.55;;;41.17;;
29570;SDS011;16814;52.118;11.436;2024-01-11T12:02:37;75.45;;;33.50;;
29570;SDS011;16814;52.118;11.436;2024-01-11T12:05:11;106.97;;;45.33;;
29570;SDS011;16814;52.118;11.436;2024-01-11T12:07:39;128.45;;;52.22;;
29570;SDS011;16814;52.118;11.436;2024-01-11T12:10:06;278.38;;;111.57;;
29570;SDS011;16814;52.118;11.436;2024-01-11T12:12:36;382.33;;;135.07;;
29570;SDS011;16814;52.118;11.436;2024-01-11T12:15:04;384.75;;;150.63;;
29570;SDS011;16814;52.118;11.436;2024-01-11T12:17:32;293.02;;;120.35;;
29570;SDS011;16814;52.118;11.436;2024-01-11T12:19:58;101.50;;;50.08;;
29570;SDS011;16814;52.118;11.436;2024-01-11T12:22:25;87.57;;;43.60;;
29570;SDS011;16814;52.118;11.436;2024-01-11T12:24:51;46.15;;;24.95;;
29570;SDS011;16814;52.118;11.436;2024-01-11T12:27:19;49.47;;;26.70;;
29570;SDS011;16814;52.118;11.436;2024-01-11T12:29:47;46.55;;;23.40;;
29570;SDS011;16814;52.118;11.436;2024-01-11T12:32:14;42.00;;;21.20;;
29570;SDS011;16814;52.118;11.436;2024-01-11T12:34:43;38.53;;;19.43;;
29570;SDS011;16814;52.118;11.436;2024-01-11T12:37:16;45.00;;;22.33;;
29570;SDS011;16814;52.118;11.436;2024-01-11T12:39:43;46.53;;;23.23;;
29570;SDS011;16814;52.118;11.436;2024-01-11T12:42:09;48.58;;;21.70;;
29570;SDS011;16814;52.118;11.436;2024-01-11T12:44:38;50.40;;;23.08;;
29570;SDS011;16814;52.118;11.436;2024-01-11T12:47:07;51.50;;;22.77;;
29570;SDS011;16814;52.118;11.436;2024-01-11T12:49:36;58.83;;;24.30;;
29570;SDS011;16814;52.118;11.436;2024-01-11T12:52:03;58.90;;;24.95;;
29570;SDS011;16814;52.118;11.436;2024-01-11T12:54:29;54.63;;;23.27;;
29570;SDS011;16814;52.118;11.436;2024-01-11T12:57:00;55.22;;;23.90;;
29570;SDS011;16814;52.118;11.436;2024-01-11T12:59:26;57.33;;;24.00;;
29570;SDS011;16814;52.118;11.436;2024-01-11T13:01:54;58.25;;;23.23;;
29570;SDS011;16814;52.118;11.436;2024-01-11T13:04:21;58.42;;;23.33;;
29570;SDS011;16814;52.118;11.436;2024-01-11T13:06:49;69.05;;;26.35;;
29570;SDS011;16814;52.118;11.436;2024-01-11T13:09:14;59.80;;;24.75;;
29570;SDS011;16814;52.118;11.436;2024-01-11T13:11:41;62.23;;;25.13;;
29570;SDS011;16814;52.118;11.436;2024-01-11T13:14:11;53.08;;;22.35;;
29570;SDS011;16814;52.118;11.436;2024-01-11T13:16:43;55.75;;;22.58;;
29570;SDS011;16814;52.118;11.436;2024-01-11T13:19:12;56.53;;;22.83;;
29570;SDS011;16814;52.118;11.436;2024-01-11T13:21:37;67.60;;;26.23;;
29570;SDS011;16814;52.118;11.436;2024-01-11T13:24:04;54.67;;;22.27;;
29570;SDS011;16814;52.118;11.436;2024-01-11T13:26:35;55.30;;;22.77;;
29570;SDS011;16814;52.118;11.436;2024-01-11T13:29:02;52.20;;;20.83;;
29570;SDS011;16814;52.118;11.436;2024-01-11T13:31:30;48.47;;;20.35;;
29570;SDS011;16814;52.118;11.436;2024-01-11T13:33:56;54.97;;;21.60;;
29570;SDS011;16814;52.118;11.436;2024-01-11T13:36:24;65.97;;;27.83;;
29570;SDS011;16814;52.118;11.436;2024-01-11T13:38:51;60.28;;;24.15;;
29570;SDS011;16814;52.118;11.436;2024-01-11T13:41:19;65.10;;;25.23;;
29570;SDS011;16814;52.118;11.436;2024-01-11T13:43:46;68.63;;;26.70;;
29570;SDS011;16814;52.118;11.436;2024-01-11T13:46:12;55.67;;;22.13;;
29570;SDS011;16814;52.118;11.436;2024-01-11T13:48:41;45.42;;;18.42;;
29570;SDS011;16814;52.118;11.436;2024-01-11T13:51:10;44.47;;;17.48;;
29570;SDS011;16814;52.118;11.436;2024-01-11T13:53:40;41.85;;;17.35;;
29570;SDS011;16814;52.118;11.436;2024-01-11T13:56:06;40.85;;;16.63;;
29570;SDS011;16814;52.118;11.436;2024-01-11T13:58:34;39.13;;;17.08;;
29570;SDS011;16814;52.118;11.436;2024-01-11T14:01:01;39.58;;;17.02;;
29570;SDS011;16814;52.118;11.436;2024-01-11T14:03:28;37.60;;;16.70;;
29570;SDS011;16814;52.118;11.436;2024-01-11T14:05:55;36.97;;;16.08;;
29570;SDS011;16814;52.118;11.436;2024-01-11T14:08:24;36.78;;;16.48;;
29570;SDS011;16814;52.118;11.436;2024-01-11T14:10:52;35.40;;;16.20;;
29570;SDS011;16814;52.118;11.436;2024-01-11T14:13:19;34.00;;;15.00;;